Time;durP1;ratioP1;P1;durP2;ratioP2;P2;SDS_P1;SDS_P2;PMS_P1;PMS_P2;Temp;Humidity;BMP_temperature;BMP_pressure;BME280_temperature;BME280_humidity;BME280_pressure;Samples;Min_cycle;Max_cycle;Signal;HPM_P1;HPM_P2
2021/06/15 00:01:01;;;;;;;14.05;9.23;;;18.90;79.40;;;;;;5128941;28;20349;-75
2021/06/15 00:03:27;;;;;;;15.60;9.07;;;18.80;79.50;;;;;;5130340;28;20391;-74
2021/06/15 00:05:52;;;;;;;14.70;9.70;;;18.80;79.60;;;;;;5130001;28;20084;-73
2021/06/15 00:08:18;;;;;;;14.65;9.95;;;18.80;79.70;;;;;;5130522;28;20300;-74
2021/06/15 00:10:44;;;;;;;11.80;7.55;;;18.80;79.60;;;;;;5130009;28;20370;-74
2021/06/15 00:13:10;;;;;;;14.20;9.05;;;18.80;79.10;;;;;;5129683;28;20034;-74
2021/06/15 00:15:37;;;;;;;13.80;9.45;;;18.80;79.10;;;;;;5128206;28;20130;-75
2021/06/15 00:18:03;;;;;;;13.82;9.85;;;18.70;79.50;;;;;;5128546;28;20016;-75
2021/06/15 00:20:30;;;;;;;9.68;5.95;;;18.70;79.80;;;;;;5130365;28;20028;-75
2021/06/15 00:22:56;;;;;;;14.75;9.52;;;18.70;79.00;;;;;;5129048;28;20099;-75
2021/06/15 00:25:22;;;;;;;17.20;9.15;;;18.70;79.40;;;;;;5128424;28;20077;-74
2021/06/15 00:27:48;;;;;;;13.07;6.88;;;18.60;79.60;;;;;;5119119;28;20036;-74
2021/06/15 00:30:16;;;;;;;13.20;8.73;;;18.60;78.60;;;;;;5115770;28;20027;-75
2021/06/15 00:32:43;;;;;;;12.63;7.43;;;18.60;79.10;;;;;;5115013;28;20015;-74
2021/06/15 00:35:09;;;;;;;18.45;9.18;;;18.50;79.10;;;;;;5115431;28;20019;-73
2021/06/15 00:37:35;;;;;;;15.23;9.27;;;18.50;79.10;;;;;;5117026;28;20027;-74
2021/06/15 00:40:01;;;;;;;16.25;7.68;;;18.40;79.70;;;;;;5130641;28;20019;-74
2021/06/15 00:42:26;;;;;;;13.88;8.10;;;18.40;79.60;;;;;;5123843;28;20106;-74
2021/06/15 00:44:52;;;;;;;16.05;8.77;;;18.40;79.60;;;;;;5115189;28;20481;-74
2021/06/15 00:47:17;;;;;;;16.05;9.30;;;18.40;79.80;;;;;;5114053;28;20031;-74
2021/06/15 00:49:43;;;;;;;11.65;6.75;;;18.40;80.90;;;;;;5115726;28;20030;-75
2021/06/15 00:52:10;;;;;;;14.88;7.95;;;18.40;80.00;;;;;;5115138;28;20051;-75
2021/06/15 00:54:35;;;;;;;9.00;6.10;;;18.40;79.60;;;;;;5114150;28;20026;-74
2021/06/15 00:57:03;;;;;;;12.80;7.78;;;18.40;79.80;;;;;;5113667;28;20020;-75
2021/06/15 00:59:28;;;;;;;11.75;7.07;;;18.40;80.10;;;;;;5115233;28;20490;-74
2021/06/15 01:01:55;;;;;;;11.23;7.05;;;18.30;79.50;;;;;;5115223;28;20024;-74
2021/06/15 01:04:21;;;;;;;14.55;7.57;;;18.30;79.30;;;;;;5114599;28;20020;-74
2021/06/15 01:06:49;;;;;;;13.77;8.35;;;18.20;79.90;;;;;;5115021;28;20464;-74
2021/06/15 01:09:32;;;;;;;10.32;6.45;;;18.20;79.90;;;;;;5114775;28;20577;-73
2021/06/15 01:12:23;;;;;;;11.77;8.13;;;18.20;80.10;;;;;;5113406;28;20107;-74
2021/06/15 01:14:57;;;;;;;14.68;7.28;;;18.20;79.30;;;;;;5114926;28;20032;-74
2021/06/15 01:17:35;;;;;;;10.15;7.05;;;18.10;79.90;;;;;;5114937;28;20086;-74
2021/06/15 01:20:17;;;;;;;10.75;7.35;;;18.10;79.80;;;;;;5114569;28;20089;-75
2021/06/15 01:23:09;;;;;;;11.70;8.05;;;18.10;80.10;;;;;;5114567;28;20086;-74
2021/06/15 01:26:13;;;;;;;14.18;6.32;;;18.10;80.40;;;;;;5113985;28;20031;-75
2021/06/15 01:29:00;;;;;;;16.10;7.68;;;18.00;80.30;;;;;;5116401;28;20102;-75
2021/06/15 01:31:26;;;;;;;13.25;8.57;;;18.00;80.40;;;;;;5115821;28;20028;-75
2021/06/15 01:34:02;;;;;;;13.10;7.40;;;18.00;80.40;;;;;;5113555;28;20027;-74
2021/06/15 01:36:37;;;;;;;13.35;7.20;;;17.90;80.40;;;;;;5112736;28;20036;-74
2021/06/15 01:39:09;;;;;;;13.93;8.05;;;17.90;80.10;;;;;;5111885;28;20027;-74
2021/06/15 01:41:43;;;;;;;13.88;7.85;;;17.90;80.30;;;;;;5114447;28;20107;-74
2021/06/15 01:44:11;;;;;;;15.60;8.40;;;17.90;80.10;;;;;;5113025;28;20053;-73
2021/06/15 01:46:57;;;;;;;15.05;7.93;;;17.90;80.30;;;;;;5113137;28;20023;-73
2021/06/15 01:49:25;;;;;;;14.40;8.32;;;17.90;80.40;;;;;;5113838;28;20132;-74
2021/06/15 01:51:52;;;;;;;13.90;8.57;;;17.90;80.20;;;;;;5115641;28;20026;-74
2021/06/15 01:54:23;;;;;;;12.35;7.07;;;17.90;80.40;;;;;;5130744;28;20119;-74
2021/06/15 01:56:51;;;;;;;12.70;6.90;;;17.90;80.50;;;;;;5117481;28;20031;-74
2021/06/15 01:59:19;;;;;;;11.55;7.25;;;17.80;80.30;;;;;;5134114;28;20048;-75
2021/06/15 02:01:49;;;;;;;14.63;8.35;;;17.80;79.90;;;;;;5115550;28;20034;-75
2021/06/15 02:04:15;;;;;;;13.32;8.02;;;17.80;80.40;;;;;;5112430;28;20027;-75
2021/06/15 02:06:45;;;;;;;14.05;8.25;;;17.80;80.50;;;;;;5112633;28;20023;-75
2021/06/15 02:09:12;;;;;;;15.02;7.90;;;17.80;80.60;;;;;;5113558;28;20157;-74
2021/06/15 02:11:40;;;;;;;13.23;7.38;;;17.80;80.60;;;;;;5114121;28;20447;-75
2021/06/15 02:14:16;;;;;;;11.50;7.30;;;17.80;80.40;;;;;;5113821;28;20031;-75
2021/06/15 02:16:48;;;;;;;12.20;7.60;;;17.80;80.20;;;;;;5112434;28;20044;-75
2021/06/15 02:19:18;;;;;;;11.82;7.60;;;17.80;80.20;;;;;;5112123;28;20034;-74
2021/06/15 02:21:47;;;;;;;12.52;7.07;;;17.80;80.10;;;;;;5113550;28;20043;-75
2021/06/15 02:24:13;;;;;;;10.88;6.45;;;17.80;80.10;;;;;;5113308;28;20015;-75
2021/06/15 02:26:40;;;;;;;12.73;8.00;;;17.70;80.20;;;;;;5112217;28;20038;-74
2021/06/15 02:29:06;;;;;;;14.82;7.78;;;17.70;80.10;;;;;;5112149;28;20456;-74
2021/06/15 02:31:40;;;;;;;15.05;6.95;;;17.70;80.00;;;;;;5113745;28;20077;-74
2021/06/15 02:34:08;;;;;;;13.02;7.25;;;17.70;80.00;;;;;;5113187;28;20019;-74
2021/06/15 02:36:36;;;;;;;10.38;7.55;;;17.70;79.80;;;;;;5113434;28;20032;-74
2021/06/15 02:39:16;;;;;;;14.23;7.03;;;17.70;79.80;;;;;;5113664;28;20107;-74
2021/06/15 02:41:43;;;;;;;11.43;7.05;;;17.80;79.70;;;;;;5112509;28;20111;-74
2021/06/15 02:44:15;;;;;;;12.38;6.82;;;17.80;79.20;;;;;;5124289;28;20016;-73
2021/06/15 02:46:42;;;;;;;10.15;6.13;;;17.70;78.80;;;;;;5123552;28;20028;-74
2021/06/15 02:49:14;;;;;;;9.80;6.68;;;17.80;78.70;;;;;;5113093;28;20020;-74
2021/06/15 02:51:47;;;;;;;10.75;4.85;;;17.80;78.50;;;;;;5112959;28;20019;-74
2021/06/15 02:54:25;;;;;;;10.45;5.80;;;17.80;78.10;;;;;;5112803;28;20467;-74
2021/06/15 02:56:53;;;;;;;10.85;5.78;;;17.70;78.30;;;;;;5111719;28;20043;-75
2021/06/15 02:59:20;;;;;;;12.43;5.82;;;17.80;77.90;;;;;;5111515;28;20546;-74
2021/06/15 03:01:50;;;;;;;10.40;6.47;;;17.80;77.80;;;;;;5111597;28;20026;-74
2021/06/15 03:04:16;;;;;;;;;;;17.70;77.40;;;;;;5112932;28;20077;-74
2021/06/15 03:06:42;;;;;;;10.98;4.85;;;17.70;77.40;;;;;;5112954;28;19909;-74
2021/06/15 03:09:09;;;;;;;8.93;4.32;;;17.80;77.60;;;;;;5111363;28;20028;-74
2021/06/15 03:11:42;;;;;;;7.95;4.70;;;17.80;77.60;;;;;;5112913;28;20026;-75
2021/06/15 03:14:27;;;;;;;8.65;4.68;;;17.80;77.20;;;;;;5113117;28;20452;-74
2021/06/15 03:16:57;;;;;;;10.27;5.10;;;17.80;77.20;;;;;;5114816;28;20089;-74
2021/06/15 03:19:31;;;;;;;14.20;5.20;;;17.80;76.50;;;;;;5115159;28;20027;-74
2021/06/15 03:22:20;;;;;;;9.50;5.22;;;17.80;77.10;;;;;;5115290;28;20028;-74
2021/06/15 03:24:52;;;;;;;9.07;4.10;;;17.80;77.40;;;;;;5112616;28;20048;-75
2021/06/15 03:27:29;;;;;;;9.98;5.07;;;17.80;77.10;;;;;;5111100;28;20032;-73
2021/06/15 03:29:55;;;;;;;10.10;5.10;;;17.80;77.40;;;;;;5111280;28;20456;-75
2021/06/15 03:32:22;;;;;;;10.15;5.30;;;17.80;77.80;;;;;;5111613;28;20065;-75
2021/06/15 03:34:52;;;;;;;10.07;4.90;;;17.80;78.60;;;;;;5112760;28;20030;-74
2021/06/15 03:37:22;;;;;;;9.85;4.60;;;17.80;78.00;;;;;;5112721;28;20038;-74
2021/06/15 03:39:50;;;;;;;9.10;5.68;;;17.80;78.10;;;;;;5112963;28;20024;-75
2021/06/15 03:42:20;;;;;;;10.05;5.30;;;17.80;77.90;;;;;;5112378;28;20058;-75
2021/06/15 03:44:54;;;;;;;11.80;4.35;;;17.80;77.80;;;;;;5112579;28;20020;-75
2021/06/15 03:47:23;;;;;;;7.97;4.57;;;17.90;77.50;;;;;;5112936;28;20024;-75
2021/06/15 03:49:52;;;;;;;9.63;3.95;;;17.90;76.30;;;;;;5111901;28;20059;-75
2021/06/15 03:52:18;;;;;;;6.22;3.15;;;17.90;75.90;;;;;;5112301;28;20024;-73
2021/06/15 03:54:45;;;;;;;7.38;3.47;;;17.90;75.70;;;;;;5115158;28;20051;-74
2021/06/15 03:57:15;;;;;;;7.22;3.25;;;17.90;75.50;;;;;;5128181;27;20046;-76
2021/06/15 03:59:43;;;;;;;6.50;3.35;;;17.90;75.10;;;;;;5119140;28;20103;-75
2021/06/15 04:02:11;;;;;;;7.07;3.40;;;17.90;75.00;;;;;;5129160;28;20455;-75
2021/06/15 04:04:40;;;;;;;10.90;3.65;;;17.90;74.30;;;;;;5116757;28;20098;-74
2021/06/15 04:07:13;;;;;;;10.00;3.25;;;17.90;74.10;;;;;;5116668;28;20084;-75
2021/06/15 04:09:39;;;;;;;5.57;3.08;;;17.90;73.70;;;;;;5114993;28;20051;-75
2021/06/15 04:12:06;;;;;;;10.38;2.95;;;17.90;73.80;;;;;;5116503;28;20031;-74
2021/06/15 04:14:34;;;;;;;7.53;2.55;;;17.90;73.80;;;;;;5116290;28;20019;-74
2021/06/15 04:17:01;;;;;;;7.03;3.03;;;17.90;73.20;;;;;;5116487;28;20407;-74
2021/06/15 04:19:30;;;;;;;5.47;2.85;;;17.90;73.30;;;;;;5116146;28;20035;-74
2021/06/15 04:21:59;;;;;;;5.15;1.90;;;17.90;73.30;;;;;;5116093;28;20024;-75
2021/06/15 04:24:27;;;;;;;5.82;1.90;;;18.00;72.80;;;;;;5114562;28;20435;-75
2021/06/15 04:26:58;;;;;;;6.38;2.35;;;18.00;73.00;;;;;;5115911;28;20027;-74
2021/06/15 04:29:24;;;;;;;5.22;2.05;;;18.10;71.80;;;;;;5116075;28;20030;-73
2021/06/15 04:31:52;;;;;;;4.35;1.88;;;18.00;71.90;;;;;;5115800;28;20016;-74
2021/06/15 04:34:23;;;;;;;6.13;1.90;;;18.00;72.00;;;;;;5114527;28;20020;-74
2021/06/15 04:36:49;;;;;;;4.90;1.75;;;18.00;71.80;;;;;;5114605;28;20062;-74
2021/06/15 04:39:20;;;;;;;5.53;2.28;;;18.10;71.50;;;;;;5114663;28;20024;-74
2021/06/15 04:42:05;;;;;;;5.43;1.88;;;18.10;71.40;;;;;;5115776;28;20016;-74
2021/06/15 04:44:41;;;;;;;10.43;1.80;;;18.10;71.00;;;;;;5116770;28;20445;-74
2021/06/15 04:47:24;;;;;;;3.80;1.52;;;18.10;70.80;;;;;;5127601;28;20031;-75
2021/06/15 04:49:57;;;;;;;6.38;1.25;;;18.10;72.20;;;;;;5124620;28;20035;-74
2021/06/15 04:52:27;;;;;;;6.20;1.67;;;18.00;70.60;;;;;;5115355;28;20020;-74
2021/06/15 04:54:53;;;;;;;7.25;1.77;;;18.00;70.60;;;;;;5115475;28;20020;-74
2021/06/15 04:57:23;;;;;;;7.18;1.70;;;18.00;70.70;;;;;;5115036;28;20035;-74
2021/06/15 04:59:52;;;;;;;5.13;1.90;;;18.00;70.20;;;;;;5114002;28;20371;-74
2021/06/15 05:02:28;;;;;;;8.27;1.77;;;18.00;72.40;;;;;;5113865;28;20172;-74
2021/06/15 05:04:54;;;;;;;4.90;1.50;;;18.00;69.80;;;;;;5114926;28;20028;-75
2021/06/15 05:07:22;;;;;;;7.75;1.58;;;18.00;70.50;;;;;;5115300;28;20027;-75
2021/06/15 05:10:00;;;;;;;5.28;1.35;;;17.90;70.60;;;;;;5113876;28;20051;-75
2021/06/15 05:12:34;;;;;;;8.75;2.03;;;17.90;69.80;;;;;;5116353;28;20107;-74
2021/06/15 05:15:05;;;;;;;4.80;1.38;;;17.90;71.10;;;;;;5113539;28;20023;-74
2021/06/15 05:17:31;;;;;;;6.38;1.30;;;17.90;70.70;;;;;;5115034;28;20035;-75
2021/06/15 05:19:57;;;;;;;13.55;2.22;;;18.00;69.60;;;;;;5113717;28;20472;-74
2021/06/15 05:22:26;;;;;;;5.72;1.27;;;17.90;69.30;;;;;;5113078;28;20035;-75
2021/06/15 05:24:57;;;;;;;4.55;1.10;;;18.00;69.60;;;;;;5114837;28;20102;-74
2021/06/15 05:27:31;;;;;;;6.28;1.40;;;18.00;69.40;;;;;;5113415;28;20353;-76
2021/06/15 05:29:57;;;;;;;6.97;1.17;;;18.00;68.90;;;;;;5113612;28;20019;-74
2021/06/15 05:32:24;;;;;;;5.07;1.50;;;18.00;69.00;;;;;;5114547;28;20369;-74
2021/06/15 05:34:50;;;;;;;9.30;1.30;;;18.10;70.10;;;;;;5113721;28;20024;-76
2021/06/15 05:37:17;;;;;;;7.60;1.88;;;18.10;68.80;;;;;;5113199;28;20383;-75
2021/06/15 05:39:45;;;;;;;9.48;1.95;;;18.10;69.10;;;;;;5113279;28;20030;-76
2021/06/15 05:42:14;;;;;;;9.43;1.23;;;18.20;70.00;;;;;;5113840;28;20020;-76
2021/06/15 05:44:41;;;;;;;8.50;1.85;;;18.20;69.10;;;;;;5114986;28;20084;-75
2021/06/15 05:47:07;;;;;;;8.32;1.60;;;18.20;69.50;;;;;;5114881;28;20024;-75
2021/06/15 05:49:33;;;;;;;7.05;1.50;;;18.20;69.80;;;;;;5113177;28;20031;-75
2021/06/15 05:52:02;;;;;;;4.00;1.08;;;18.20;69.10;;;;;;5114304;28;20023;-75
2021/06/15 05:54:28;;;;;;;5.97;2.22;;;18.40;70.50;;;;;;5113389;28;20020;-73
2021/06/15 05:56:53;;;;;;;7.50;1.33;;;18.50;70.50;;;;;;5113216;28;20050;-75
2021/06/15 05:59:19;;;;;;;5.97;1.27;;;18.50;69.00;;;;;;5115592;28;20467;-75
2021/06/15 06:01:45;;;;;;;9.38;1.70;;;18.60;68.40;;;;;;5117855;28;20027;-75
2021/06/15 06:04:13;;;;;;;6.38;1.65;;;18.70;67.90;;;;;;5128550;28;20031;-76
2021/06/15 06:09:22;;;;;;;7.07;1.55;;;19.00;67.80;;;;;;5110707;28;20035;-75
2021/06/15 06:11:48;;;;;;;5.30;1.20;;;19.10;66.20;;;;;;5112878;28;20016;-74
2021/06/15 06:14:14;;;;;;;7.68;1.35;;;19.20;65.70;;;;;;5112192;28;20080;-75
2021/06/15 06:16:42;;;;;;;3.28;1.08;;;19.30;67.60;;;;;;5111944;28;20047;-75
2021/06/15 06:19:12;;;;;;;5.07;1.27;;;19.30;64.60;;;;;;5112563;28;20023;-74
2021/06/15 06:21:37;;;;;;;6.82;1.38;;;19.40;65.30;;;;;;5113713;28;20033;-75
2021/06/15 06:24:06;;;;;;;2.03;0.95;;;19.60;65.90;;;;;;5114095;28;20452;-74
2021/06/15 06:26:32;;;;;;;4.03;1.20;;;19.70;66.00;;;;;;5112365;28;20030;-75
2021/06/15 06:28:58;;;;;;;5.65;1.20;;;19.70;65.30;;;;;;5114349;28;20170;-74
2021/06/15 06:31:24;;;;;;;3.22;0.80;;;19.70;64.20;;;;;;5113945;28;20507;-75
2021/06/15 06:33:49;;;;;;;6.03;1.13;;;19.80;64.30;;;;;;5113466;28;20507;-76
2021/06/15 06:36:15;;;;;;;6.60;1.40;;;19.70;63.30;;;;;;5113555;28;20034;-75
2021/06/15 06:38:41;;;;;;;4.65;1.15;;;19.70;63.10;;;;;;5112179;28;20088;-74
2021/06/15 06:41:07;;;;;;;5.38;1.35;;;19.60;65.20;;;;;;5112390;28;20027;-75
2021/06/15 06:43:33;;;;;;;4.20;1.27;;;19.60;65.60;;;;;;5112573;28;20027;-76
2021/06/15 06:45:59;;;;;;;6.13;1.00;;;19.60;65.80;;;;;;5113066;28;20023;-75
2021/06/15 06:48:24;;;;;;;4.95;1.27;;;19.60;65.10;;;;;;5112975;28;20337;-75
2021/06/15 06:50:51;;;;;;;5.60;1.20;;;19.70;64.90;;;;;;5113536;28;20020;-75
2021/06/15 06:53:17;;;;;;;9.20;1.75;;;19.70;64.00;;;;;;5126871;28;20452;-75
2021/06/15 06:55:42;;;;;;;4.75;0.93;;;19.80;63.10;;;;;;5111388;28;20092;-75
2021/06/15 06:58:08;;;;;;;8.70;1.40;;;19.80;62.70;;;;;;5113494;28;20055;-75
2021/06/15 07:00:34;;;;;;;10.60;1.35;;;20.00;61.80;;;;;;5112066;28;20515;-75
2021/06/15 07:03:00;;;;;;;5.47;0.93;;;20.10;61.00;;;;;;5115427;28;20062;-75
2021/06/15 07:05:26;;;;;;;10.02;1.80;;;20.20;62.30;;;;;;5113702;28;20054;-76
2021/06/15 07:07:52;;;;;;;8.45;1.30;;;20.20;62.50;;;;;;5112029;28;20055;-75
2021/06/15 07:10:21;;;;;;;7.15;1.13;;;20.20;62.60;;;;;;5113216;28;20446;-74
2021/06/15 07:12:47;;;;;;;5.53;1.20;;;20.20;64.10;;;;;;5111971;28;20020;-75
2021/06/15 07:15:14;;;;;;;5.40;1.00;;;20.20;57.90;;;;;;5110996;28;20080;-75
2021/06/15 07:17:40;;;;;;;6.15;1.15;;;20.20;58.30;;;;;;5111546;28;20387;-78
2021/06/15 07:20:06;;;;;;;3.65;0.80;;;20.30;61.40;;;;;;5111970;28;20026;-76
2021/06/15 07:22:32;;;;;;;3.17;0.93;;;20.50;60.90;;;;;;5112100;28;20069;-76
2021/06/15 07:24:58;;;;;;;3.30;0.80;;;20.80;60.50;;;;;;5111929;28;20062;-76
2021/06/15 07:27:24;;;;;;;3.78;1.30;;;21.20;60.30;;;;;;5111921;28;20019;-78
2021/06/15 07:29:49;;;;;;;4.15;0.88;;;21.50;59.50;;;;;;5112146;28;20114;-77
2021/06/15 07:32:15;;;;;;;5.63;0.77;;;21.70;59.00;;;;;;5113110;28;20023;-76
2021/06/15 07:34:40;;;;;;;3.70;0.77;;;22.00;58.30;;;;;;5111616;28;20012;-76
2021/06/15 07:37:06;;;;;;;4.22;0.70;;;22.20;57.70;;;;;;5112266;28;20460;-76
2021/06/15 07:39:35;;;;;;;2.55;0.70;;;22.40;56.80;;;;;;5116931;28;20024;-76
2021/06/15 07:42:01;;;;;;;4.47;1.10;;;22.70;57.20;;;;;;5115712;28;20035;-78
2021/06/15 07:44:27;;;;;;;4.43;0.65;;;22.90;55.90;;;;;;5116842;28;20024;-76
2021/06/15 07:46:55;;;;;;;2.75;0.60;;;23.00;55.70;;;;;;5117292;28;20031;-76
2021/06/15 07:49:22;;;;;;;2.22;0.65;;;23.10;55.70;;;;;;5116585;28;20451;-77
2021/06/15 07:51:48;;;;;;;3.22;0.68;;;23.10;54.80;;;;;;5116981;28;20063;-77
2021/06/15 07:54:13;;;;;;;1.95;0.57;;;22.90;55.20;;;;;;5116531;28;20027;-76
2021/06/15 07:56:39;;;;;;;4.82;0.80;;;22.90;55.20;;;;;;5117944;28;20023;-77
2021/06/15 07:59:05;;;;;;;2.88;0.70;;;22.90;55.80;;;;;;5124537;28;20087;-77
2021/06/15 08:01:30;;;;;;;3.40;0.80;;;22.90;55.30;;;;;;5129047;28;20058;-78
2021/06/15 08:03:56;;;;;;;4.88;0.80;;;23.00;54.60;;;;;;5125347;27;20280;-77
2021/06/15 08:06:22;;;;;;;3.28;0.82;;;22.90;54.60;;;;;;5116242;28;20374;-78
2021/06/15 08:08:48;;;;;;;5.05;1.00;;;22.90;54.80;;;;;;5117037;28;20032;-78
2021/06/15 08:11:14;;;;;;;3.97;0.93;;;22.90;54.90;;;;;;5115977;28;20123;-78
2021/06/15 08:13:39;;;;;;;5.15;1.13;;;23.00;54.40;;;;;;5116983;28;20027;-77
2021/06/15 08:16:05;;;;;;;5.43;0.90;;;23.00;53.10;;;;;;5115833;28;20043;-78
2021/06/15 08:18:31;;;;;;;3.95;0.70;;;23.10;54.50;;;;;;5116491;28;20024;-75
2021/06/15 08:20:57;;;;;;;5.25;0.73;;;23.10;54.40;;;;;;5116658;28;20035;-75
2021/06/15 08:23:23;;;;;;;2.55;0.65;;;23.20;53.70;;;;;;5116602;28;20157;-74
2021/06/15 08:25:53;;;;;;;2.42;0.90;;;23.30;53.20;;;;;;5115802;28;20031;-76
2021/06/15 08:28:20;;;;;;;3.95;0.80;;;23.50;52.60;;;;;;5115711;28;20016;-76
2021/06/15 08:30:45;;;;;;;2.67;0.68;;;23.60;53.30;;;;;;5115241;28;20097;-76
2021/06/15 08:33:11;;;;;;;3.70;0.65;;;23.70;52.60;;;;;;5117228;28;20147;-77
2021/06/15 08:35:37;;;;;;;5.35;0.70;;;23.70;52.00;;;;;;5115924;28;20073;-75
2021/06/15 08:38:03;;;;;;;3.80;0.90;;;23.70;52.90;;;;;;5116433;28;20112;-75
2021/06/15 08:40:30;;;;;;;4.53;0.77;;;23.80;52.90;;;;;;5114975;28;20114;-75
2021/06/15 08:42:56;;;;;;;5.47;0.80;;;24.00;52.40;;;;;;5116878;28;20053;-76
2021/06/15 08:45:22;;;;;;;7.60;1.02;;;24.20;51.20;;;;;;5117602;28;20024;-78
2021/06/15 08:47:49;;;;;;;1.80;0.40;;;24.40;50.80;;;;;;5116050;28;20052;-76
2021/06/15 08:50:27;;;;;;;6.65;1.00;;;24.70;50.60;;;;;;5116522;28;20016;-77
2021/06/15 08:52:53;;;;;;;4.30;0.80;;;24.80;50.50;;;;;;5116701;28;20024;-77
2021/06/15 08:55:21;;;;;;;3.47;0.70;;;25.00;50.30;;;;;;5122196;28;20087;-77
2021/06/15 08:58:30;;;;;;;3.05;0.70;;;25.00;49.70;;;;;;5129829;28;20062;-77
2021/06/15 09:00:56;;;;;;;2.92;0.80;;;25.20;49.10;;;;;;5077191;28;20070;-77
2021/06/15 09:03:22;;;;;;;3.65;0.73;;;25.30;49.60;;;;;;5114470;28;20534;-78
2021/06/15 09:05:48;;;;;;;2.72;0.57;;;25.40;49.80;;;;;;5114015;28;20118;-77
2021/06/15 09:08:14;;;;;;;3.70;0.63;;;25.40;50.00;;;;;;5113899;28;20164;-76
2021/06/15 09:10:49;;;;;;;2.47;0.80;;;25.40;50.00;;;;;;5115066;28;20031;-77
2021/06/15 09:13:35;;;;;;;2.60;0.68;;;25.50;50.50;;;;;;5115317;28;20035;-78
2021/06/15 09:16:01;;;;;;;4.88;1.10;;;25.60;50.10;;;;;;5113512;28;20055;-77
2021/06/15 09:18:29;;;;;;;4.28;0.80;;;25.80;49.70;;;;;;5113485;28;20023;-76
2021/06/15 09:21:01;;;;;;;6.07;1.23;;;25.90;49.00;;;;;;5114726;28;20090;-76
2021/06/15 09:23:34;;;;;;;3.38;0.50;;;26.10;49.00;;;;;;5114736;28;20083;-76
2021/06/15 09:26:00;;;;;;;5.43;1.02;;;26.10;48.90;;;;;;5113412;28;20023;-75
2021/06/15 09:28:25;;;;;;;5.32;0.70;;;26.10;49.40;;;;;;5113635;28;20068;-76
2021/06/15 09:31:03;;;;;;;3.35;0.73;;;26.20;49.50;;;;;;5113159;28;20024;-76
2021/06/15 09:33:37;;;;;;;6.03;0.80;;;26.40;48.60;;;;;;5114607;28;20068;-75
2021/06/15 09:36:12;;;;;;;3.63;1.05;;;26.70;47.90;;;;;;5113231;28;20062;-74
2021/06/15 09:38:51;;;;;;;3.05;0.80;;;26.80;48.40;;;;;;5113264;28;20019;-76
2021/06/15 09:41:45;;;;;;;2.05;0.60;;;26.70;49.10;;;;;;5113567;28;20066;-76
2021/06/15 09:44:18;;;;;;;3.25;0.60;;;26.70;50.10;;;;;;5113384;28;20051;-76
2021/06/15 09:46:45;;;;;;;2.40;0.50;;;26.80;50.40;;;;;;5114493;28;20019;-76
2021/06/15 09:49:12;;;;;;;1.25;0.50;;;26.80;50.80;;;;;;5114414;28;20531;-76
2021/06/15 09:51:39;;;;;;;3.80;0.80;;;26.70;51.20;;;;;;5114193;28;20019;-76
2021/06/15 09:54:05;;;;;;;2.63;0.60;;;26.70;49.80;;;;;;5113180;28;20023;-76
2021/06/15 09:56:31;;;;;;;4.40;0.70;;;26.80;50.20;;;;;;5112813;28;20039;-76
2021/06/15 09:58:58;;;;;;;3.00;0.82;;;26.80;50.50;;;;;;5117900;28;20015;-75
2021/06/15 10:01:42;;;;;;;2.75;0.57;;;26.90;50.00;;;;;;5126007;28;20016;-75
2021/06/15 10:04:20;;;;;;;3.80;0.70;;;27.00;47.20;;;;;;5118141;28;20092;-76
2021/06/15 10:06:54;;;;;;;4.05;1.38;;;27.00;47.40;;;;;;5130923;28;20068;-77
2021/06/15 10:09:26;;;;;;;3.58;0.85;;;27.10;47.80;;;;;;5116930;28;20024;-76
2021/06/15 10:11:57;;;;;;;6.15;1.10;;;27.20;47.20;;;;;;5114031;28;20528;-78
2021/06/15 10:14:24;;;;;;;3.50;0.93;;;27.30;46.10;;;;;;5113199;28;20460;-78
2021/06/15 10:16:50;;;;;;;3.35;0.60;;;27.40;46.60;;;;;;5112305;28;20039;-77
2021/06/15 10:19:16;;;;;;;3.10;0.80;;;27.50;46.70;;;;;;5113464;28;20421;-77
2021/06/15 10:21:42;;;;;;;3.58;0.98;;;27.70;47.60;;;;;;5112399;28;20076;-78
2021/06/15 10:24:09;;;;;;;3.60;0.80;;;27.90;47.60;;;;;;5113239;28;20116;-76
2021/06/15 10:26:35;;;;;;;3.28;0.88;;;28.10;46.50;;;;;;5112463;28;20381;-77
2021/06/15 10:29:12;;;;;;;3.15;0.85;;;28.20;46.90;;;;;;5112553;28;20051;-78
2021/06/15 10:31:40;;;;;;;3.92;0.80;;;28.20;47.10;;;;;;5113711;28;20034;-77
2021/06/15 10:34:06;;;;;;;5.15;0.90;;;28.30;48.20;;;;;;5112152;28;20019;-76
2021/06/15 10:36:39;;;;;;;4.10;0.65;;;28.30;44.60;;;;;;5113378;28;20035;-76
2021/06/15 10:39:15;;;;;;;4.55;0.80;;;28.30;47.10;;;;;;5113692;28;20028;-76
2021/06/15 10:41:41;;;;;;;4.45;1.17;;;28.30;44.70;;;;;;5113296;28;20020;-76
2021/06/15 10:44:08;;;;;;;1.70;0.50;;;28.10;42.60;;;;;;5113140;28;20348;-75
2021/06/15 10:46:37;;;;;;;3.92;0.95;;;27.90;42.40;;;;;;5119096;28;20023;-76
2021/06/15 10:49:07;;;;;;;4.53;0.82;;;27.90;41.50;;;;;;5115263;28;20024;-75
2021/06/15 10:51:53;;;;;;;11.68;1.77;;;27.90;45.80;;;;;;5113495;28;20064;-76
2021/06/15 10:54:34;;;;;;;6.22;1.23;;;28.10;42.70;;;;;;5113812;28;20023;-76
2021/06/15 10:57:17;;;;;;;3.15;0.60;;;28.00;41.60;;;;;;5113956;28;20115;-75
2021/06/15 10:59:57;;;;;;;5.75;1.13;;;28.10;51.80;;;;;;5115121;28;20463;-76
2021/06/15 11:02:27;;;;;;;6.13;1.00;;;28.10;39.10;;;;;;5132965;28;20028;-75
2021/06/15 11:04:53;;;;;;;4.88;0.90;;;28.10;37.30;;;;;;5117069;28;20016;-75
2021/06/15 11:07:45;;;;;;;3.35;0.65;;;28.20;40.50;;;;;;5112273;28;20463;-75
2021/06/15 11:10:11;;;;;;;7.78;1.20;;;28.30;41.10;;;;;;5108963;28;20039;-74
2021/06/15 11:12:47;;;;;;;6.85;1.10;;;28.40;37.90;;;;;;5112547;28;20073;-76
2021/06/15 11:15:21;;;;;;;6.05;0.95;;;28.60;41.50;;;;;;5112908;28;20109;-75
2021/06/15 11:17:56;;;;;;;5.47;0.82;;;28.80;47.30;;;;;;5111774;28;20032;-76
2021/06/15 11:20:34;;;;;;;5.38;0.90;;;28.90;41.40;;;;;;5113482;28;20444;-75
2021/06/15 11:23:23;;;;;;;3.78;0.93;;;29.00;39.00;;;;;;5113800;28;20383;-76
2021/06/15 11:26:03;;;;;;;2.53;0.68;;;28.90;36.30;;;;;;5114171;28;20023;-78
2021/06/15 11:28:39;;;;;;;4.10;0.90;;;29.10;46.10;;;;;;5112175;28;20023;-76
2021/06/15 11:31:17;;;;;;;6.30;1.00;;;29.20;48.80;;;;;;5111746;28;20429;-77
2021/06/15 11:34:01;;;;;;;3.92;0.88;;;29.40;42.80;;;;;;5111398;28;20024;-77
2021/06/15 11:36:57;;;;;;;2.75;0.50;;;29.50;47.80;;;;;;5112857;28;20118;-75
2021/06/15 11:39:32;;;;;;;6.07;1.27;;;29.40;49.40;;;;;;5095709;28;20039;-74
2021/06/15 11:42:07;;;;;;;5.78;1.05;;;29.40;40.00;;;;;;5112644;28;20042;-74
2021/06/15 11:45:03;;;;;;;4.45;0.98;;;29.60;36.20;;;;;;5111590;28;20024;-74
2021/06/15 11:47:32;;;;;;;5.88;1.90;;;29.70;38.20;;;;;;5112818;28;20057;-74
2021/06/15 11:50:32;;;;;;;5.35;1.00;;;29.80;37.20;;;;;;5112588;28;20444;-74
2021/06/15 11:53:04;;;;;;;5.18;1.10;;;29.90;42.20;;;;;;5111345;28;20030;-75
2021/06/15 11:55:33;;;;;;;8.80;1.40;;;29.80;39.70;;;;;;5113777;28;20081;-73
2021/06/15 11:58:02;;;;;;;;;;;29.80;36.70;;;;;;5113282;28;20032;-75
2021/06/15 12:00:30;;;;;;;11.13;1.20;;;30.00;37.20;;;;;;5113170;28;20391;-74
2021/06/15 12:03:05;;;;;;;4.47;1.17;;;30.00;35.60;;;;;;5126105;28;20090;-74
2021/06/15 12:05:31;;;;;;;4.07;0.75;;;30.10;35.40;;;;;;5119810;28;20035;-74
2021/06/15 12:07:57;;;;;;;5.60;0.80;;;30.20;47.30;;;;;;5128718;28;20019;-74
2021/06/15 12:10:24;;;;;;;4.63;1.10;;;30.20;43.20;;;;;;5120223;28;20024;-74
2021/06/15 12:13:00;;;;;;;7.78;1.00;;;30.30;43.50;;;;;;5111833;28;20019;-75
2021/06/15 12:15:41;;;;;;;3.63;0.60;;;30.20;38.90;;;;;;5112613;28;20448;-74
2021/06/15 12:18:10;;;;;;;5.32;1.00;;;30.20;50.30;;;;;;5113110;28;20053;-73
2021/06/15 12:20:39;;;;;;;4.85;0.85;;;30.10;50.60;;;;;;5113469;28;20031;-74
2021/06/15 12:23:23;;;;;;;5.20;1.20;;;30.10;39.20;;;;;;5112931;28;20156;-74
2021/06/15 12:25:49;;;;;;;3.60;0.73;;;30.10;37.10;;;;;;5115799;28;20106;-74
2021/06/15 12:28:19;;;;;;;2.90;0.90;;;29.90;50.10;;;;;;5115850;28;20051;-74
2021/06/15 12:30:46;;;;;;;5.30;1.02;;;29.80;50.20;;;;;;5116039;28;20099;-74
2021/06/15 12:33:13;;;;;;;4.32;0.68;;;29.80;46.10;;;;;;5114570;28;20056;-74
2021/06/15 12:35:39;;;;;;;6.38;1.02;;;29.50;49.90;;;;;;5117962;28;20024;-74
2021/06/15 12:38:10;;;;;;;6.35;1.08;;;29.40;42.30;;;;;;5117822;28;20464;-73
2021/06/15 12:40:38;;;;;;;9.45;1.52;;;29.40;39.70;;;;;;5115999;28;20020;-73
2021/06/15 12:43:05;;;;;;;7.65;1.00;;;29.70;39.10;;;;;;5114200;28;20020;-74
2021/06/15 12:45:35;;;;;;;4.20;1.10;;;29.90;44.20;;;;;;5115728;28;20136;-74
2021/06/15 12:48:16;;;;;;;6.75;1.15;;;30.00;38.70;;;;;;5115436;28;20047;-73
2021/06/15 12:50:42;;;;;;;9.40;1.67;;;30.00;36.30;;;;;;5115246;28;20500;-73
2021/06/15 12:53:07;;;;;;;6.22;1.30;;;30.20;41.30;;;;;;5115622;28;20027;-73
2021/06/15 12:55:41;;;;;;;6.18;1.50;;;30.30;35.70;;;;;;5115752;28;20066;-74
2021/06/15 12:58:07;;;;;;;7.60;1.23;;;30.40;36.10;;;;;;5115561;28;20034;-73
2021/06/15 13:00:39;;;;;;;3.95;0.82;;;30.50;39.40;;;;;;5114348;28;20069;-74
2021/06/15 13:03:09;;;;;;;7.82;1.75;;;30.60;42.80;;;;;;5116292;28;20020;-73